Accueil
METAR-TAF:

METAR-TAF

Aéroports :

Curaçao, Antilles néerlandaises

Aéroport international de Curaçao

latitude: 12-12N, longitude: 068-58W, altitude: 9 m

Observation

Le bulletin a été fait il y a 29 minutes, à 17:00 UTC
Vent 14 kt de est
Température 31°C
Humidité 63%
Pression 1015 hPa
Visibilité 10 km ou plus
Quelques nuages à une hauteur de 2400 ft

METAR: TNCC 251700Z 10014KT 9999 FEW024 31/23 Q1015 NOSIG

Heure: 13:29 (17:29 UTC)

Prévision

Le bulletin a été fait il y a 7 heures et 29 minutes, à 10:00 UTC
Prévision valable du 25 à 12 UTC au 26 à 12 UTC
Vent 15 kt de est
Visibilité 10 km ou plus
Nuages épars à une hauteur de 2000 ft

TAF: TNCC 251000Z 2512/2612 10015KT 9999 SCT020

Observations et prévisions météorologiques de plus de 4000 aéroports (messages METAR et TAF).

Les stations disponibles sont représentées par des disques jaunes et rouges sur la carte.

Passer la souris dessus pour voir le nom de la station.

Cliquer dessus pour voir les observations et prévisions météorologiques.

Pour changer de carte: cliquez sur les boutons verts avec une croix noire pour zoomer, sur le bouton vert avec un tiret pour effectuer un zoom arrière, ou sur les flèches vertes pour les cartes adjacentes.


METAR-TAF: